createdAt,value
2019-02-22T00:01:29.811Z,102357.51
2019-02-22T00:03:58.234Z,102365.23
2019-02-22T00:06:26.642Z,102369.88
2019-02-22T00:08:55.051Z,102369.01
2019-02-22T00:11:23.495Z,102371.56
2019-02-22T00:13:51.906Z,102365.58
2019-02-22T00:16:20.327Z,102363.42
2019-02-22T00:18:48.748Z,102371.97
2019-02-22T00:21:17.237Z,102368.14
2019-02-22T00:23:45.673Z,102374.52
2019-02-22T00:26:14.080Z,102383.47
2019-02-22T00:28:42.496Z,102385.15
2019-02-22T00:31:10.938Z,102389.45
2019-02-22T00:33:39.351Z,102394.50
2019-02-22T00:36:07.760Z,102394.91
2019-02-22T00:38:36.181Z,102400.02
2019-02-22T00:41:04.592Z,102397.86
2019-02-22T00:43:33.018Z,102400.02
2019-02-22T00:46:01.509Z,102402.56
2019-02-22T00:48:29.911Z,102403.37
2019-02-22T00:50:58.322Z,102403.84
2019-02-22T00:53:26.793Z,102400.82
2019-02-22T00:55:55.202Z,102399.08
2019-02-22T00:58:23.640Z,102396.98
2019-02-22T01:00:52.048Z,102399.08
2019-02-22T01:03:20.461Z,102396.52
2019-02-22T01:05:48.874Z,102396.52
2019-02-22T01:08:17.269Z,102400.76
2019-02-22T01:10:45.697Z,102405.46
2019-02-22T01:13:14.100Z,102406.73
2019-02-22T01:15:42.535Z,102407.21
2019-02-22T01:18:10.945Z,102397.80
2019-02-22T01:20:39.392Z,102402.44
2019-02-22T01:23:07.795Z,102408.42
2019-02-22T01:25:36.226Z,102408.83
2019-02-22T01:28:04.656Z,102407.55
2019-02-22T01:30:33.069Z,102411.78
2019-02-22T01:33:01.479Z,102409.70
2019-02-22T01:35:30.147Z,102416.49
2019-02-22T01:37:58.541Z,102413.53
2019-02-22T01:40:26.973Z,102416.02
2019-02-22T01:42:55.387Z,102424.06
2019-02-22T01:45:23.805Z,102428.80
2019-02-22T01:47:52.191Z,102427.02
2019-02-22T01:50:22.638Z,102421.91
2019-02-22T01:52:51.034Z,102415.12
2019-02-22T01:55:19.436Z,102414.24
2019-02-22T01:57:47.862Z,102417.77
2019-02-22T02:00:16.535Z,102424.47
2019-02-22T02:02:45.107Z,102424.56
2019-02-22T02:05:13.505Z,102424.47
2019-02-22T02:07:42.129Z,102432.63
2019-02-22T02:10:10.555Z,102432.53
2019-02-22T02:12:38.961Z,102434.78
2019-02-22T02:15:07.625Z,102432.94
2019-02-22T02:17:36.059Z,102426.55
2019-02-22T02:20:06.217Z,102437.17
2019-02-22T02:22:34.614Z,102434.22
2019-02-22T02:25:03.107Z,102443.63
2019-02-22T02:27:31.517Z,102443.97
2019-02-22T02:29:59.923Z,102443.09
2019-02-22T02:32:28.440Z,102442.63
2019-02-22T02:34:56.883Z,102452.03
2019-02-22T02:37:25.316Z,102449.01
2019-02-22T02:39:53.728Z,102450.36
2019-02-22T02:42:22.170Z,102449.08
2019-02-22T02:44:50.590Z,102452.44
2019-02-22T02:47:18.997Z,102450.28
2019-02-22T02:49:47.433Z,102446.86
2019-02-22T02:52:15.877Z,102442.16
2019-02-22T02:54:44.285Z,102444.70
2019-02-22T02:57:12.716Z,102438.72
2019-02-22T02:59:41.226Z,102440.88
2019-02-22T03:02:11.261Z,102441.69
2019-02-22T03:04:39.693Z,102439.53
2019-02-22T03:07:09.819Z,102438.25
2019-02-22T03:09:38.271Z,102456.61
2019-02-22T03:12:06.675Z,102448.41
2019-02-22T03:14:35.084Z,102444.98
2019-02-22T03:17:03.531Z,102448.41
2019-02-22T03:19:31.929Z,102453.05
2019-02-22T03:22:00.345Z,102453.11
2019-02-22T03:24:28.784Z,102449.69
2019-02-22T03:26:57.222Z,102455.20
2019-02-22T03:29:25.655Z,102458.16
2019-02-22T03:31:54.071Z,102464.55
2019-02-22T03:34:22.528Z,102467.97
2019-02-22T03:36:50.922Z,102469.66
2019-02-22T03:39:19.342Z,102469.59
2019-02-22T03:41:47.785Z,102469.59
2019-02-22T03:44:16.218Z,102469.59
2019-02-22T03:46:44.703Z,102468.72
2019-02-22T03:49:13.108Z,102466.09
2019-02-22T03:51:41.543Z,102479.34
2019-02-22T03:54:10.039Z,102472.01
2019-02-22T03:56:38.520Z,102479.67
2019-02-22T03:59:06.944Z,102483.03
2019-02-22T04:01:35.443Z,102486.06
2019-02-22T04:04:03.944Z,102486.46
2019-02-22T04:06:32.362Z,102490.23
2019-02-22T04:09:00.780Z,102489.42
2019-02-22T04:11:29.197Z,102500.98
2019-02-22T04:13:57.625Z,102496.61
2019-02-22T04:16:26.069Z,102502.49
2019-02-22T04:18:54.506Z,102511.06
2019-02-22T04:21:22.938Z,102511.44
2019-02-22T04:23:51.376Z,102510.16
2019-02-22T04:26:19.780Z,102512.24
2019-02-22T04:28:48.196Z,102519.91
2019-02-22T04:31:16.653Z,102516.55
2019-02-22T04:33:45.132Z,102528.04
2019-02-22T04:36:13.550Z,102524.54
2019-02-22T04:38:41.993Z,102527.56
2019-02-22T04:41:10.382Z,102524.14
2019-02-22T04:43:38.892Z,102519.91
2019-02-22T04:46:07.359Z,102515.20
2019-02-22T04:48:35.783Z,102528.37
2019-02-22T04:51:04.230Z,102535.56
2019-02-22T04:53:32.632Z,102533.48
2019-02-22T04:56:01.058Z,102538.12
2019-02-22T04:58:29.546Z,102536.04
2019-02-22T05:00:57.961Z,102539.06
2019-02-22T05:03:26.436Z,102542.42
2019-02-22T05:05:54.876Z,102544.98
2019-02-22T05:08:23.280Z,102536.84
2019-02-22T05:10:51.738Z,102538.59
2019-02-22T05:13:20.160Z,102540.67
2019-02-22T05:15:48.612Z,102543.70
2019-02-22T05:18:17.058Z,102547.06
2019-02-22T05:20:45.540Z,102546.66
2019-02-22T05:23:13.946Z,102542.42
2019-02-22T05:25:42.375Z,102542.36
2019-02-22T05:28:10.809Z,102551.70
2019-02-22T05:30:39.252Z,102551.70
2019-02-22T05:33:07.680Z,102550.02
2019-02-22T05:35:36.107Z,102556.88
2019-02-22T05:38:04.513Z,102561.11
2019-02-22T05:40:32.971Z,102562.39
2019-02-22T05:43:01.360Z,102563.66
2019-02-22T05:45:29.800Z,102571.73
2019-02-22T05:47:58.205Z,102575.97
2019-02-22T05:50:26.674Z,102581.07
2019-02-22T05:52:55.121Z,102582.35
2019-02-22T05:55:23.541Z,102584.09
2019-02-22T05:57:51.966Z,102587.05
2019-02-22T06:00:20.445Z,102591.77
2019-02-22T06:02:48.896Z,102602.31
2019-02-22T06:05:17.404Z,102604.86
2019-02-22T06:07:45.886Z,102601.03
2019-02-22T06:10:14.315Z,102595.13
2019-02-22T06:12:42.735Z,102603.26
2019-02-22T06:15:11.639Z,102602.86
2019-02-22T06:17:40.055Z,102609.24
2019-02-22T06:20:11.126Z,102614.35
2019-02-22T06:22:39.550Z,102614.35
2019-02-22T06:25:10.870Z,102621.61
2019-02-22T06:27:39.409Z,102622.89
2019-02-22T06:30:09.995Z,102618.19
2019-02-22T06:32:38.589Z,102617.38
2019-02-22T06:35:08.940Z,102627.20
2019-02-22T06:37:37.554Z,102633.58
2019-02-22T06:40:08.612Z,102632.23
2019-02-22T06:42:45.374Z,102635.19
2019-02-22T06:45:08.611Z,102636.47
2019-02-22T06:47:37.121Z,102642.05
2019-02-22T06:50:07.888Z,102644.60
2019-02-22T06:52:36.422Z,102647.16
2019-02-22T06:55:05.838Z,102645.95
2019-02-22T06:57:34.356Z,102645.08
2019-02-22T07:00:03.349Z,102647.63
2019-02-22T07:02:31.792Z,102648.91
2019-02-22T07:05:00.328Z,102650.77
2019-02-22T07:07:28.709Z,102660.11
2019-02-22T07:09:57.121Z,102656.68
2019-02-22T07:12:27.202Z,102662.73
2019-02-22T07:14:55.613Z,102667.45
2019-02-22T07:17:24.045Z,102669.12
2019-02-22T07:19:52.526Z,102671.67
2019-02-22T07:22:20.932Z,102677.66
2019-02-22T07:24:49.436Z,102677.27
2019-02-22T07:27:17.814Z,102678.54
2019-02-22T07:29:46.266Z,102677.66
2019-02-22T07:32:14.680Z,102688.36
2019-02-22T07:34:43.129Z,102687.95
2019-02-22T07:37:11.540Z,102688.83
2019-02-22T07:39:39.977Z,102691.93
2019-02-22T07:42:08.401Z,102689.45
2019-02-22T07:44:36.817Z,102694.96
2019-02-22T07:47:05.299Z,102700.07
2019-02-22T07:49:33.740Z,102699.74
2019-02-22T07:52:02.162Z,102704.45
2019-02-22T07:54:30.570Z,102713.87
2019-02-22T07:56:59.014Z,102710.03
2019-02-22T07:59:27.415Z,102710.91
2019-02-22T08:01:55.922Z,102719.13
2019-02-22T08:04:24.360Z,102721.75
2019-02-22T08:06:52.820Z,102722.55
2019-02-22T08:09:21.245Z,102730.33
2019-02-22T08:11:49.677Z,102738.06
2019-02-22T08:14:18.107Z,102738.14
2019-02-22T08:16:46.540Z,102748.84
2019-02-22T08:19:14.959Z,102750.19
2019-02-22T08:21:43.383Z,102754.89
2019-02-22T08:24:11.816Z,102761.77
2019-02-22T08:26:40.319Z,102760.95
2019-02-22T08:29:08.755Z,102771.19
2019-02-22T08:31:37.304Z,102777.24
2019-02-22T08:34:05.706Z,102784.91
2019-02-22T08:36:34.149Z,102786.26
2019-02-22T08:39:02.551Z,102790.17
2019-02-22T08:41:30.987Z,102796.48
2019-02-22T08:43:59.406Z,102798.64
2019-02-22T08:46:27.837Z,102809.41
2019-02-22T08:48:56.256Z,102807.73
2019-02-22T08:51:24.704Z,102807.44
2019-02-22T08:53:53.118Z,102804.08
2019-02-22T08:56:21.533Z,102810.07
2019-02-22T08:58:50.030Z,102811.83
2019-02-22T09:01:18.518Z,102808.53
2019-02-22T09:03:50.516Z,102822.42
2019-02-22T09:06:17.097Z,102814.41
2019-02-22T09:08:45.503Z,102815.44
2019-02-22T09:11:13.956Z,102819.86
2019-02-22T09:13:43.876Z,102820.00
2019-02-22T09:16:12.488Z,102820.47
2019-02-22T09:18:40.898Z,102824.67
2019-02-22T09:21:09.377Z,102828.76
2019-02-22T09:23:37.824Z,102827.77
2019-02-22T09:26:06.233Z,102832.27
2019-02-22T09:28:34.687Z,102829.52
2019-02-22T09:31:03.131Z,102833.57
2019-02-22T09:33:31.534Z,102831.41
2019-02-22T09:35:59.966Z,102831.27
2019-02-22T09:38:28.392Z,102826.76
2019-02-22T09:40:56.820Z,102826.64
2019-02-22T09:43:25.233Z,102832.30
2019-02-22T09:45:53.674Z,102838.20
2019-02-22T09:48:22.089Z,102846.36
2019-02-22T09:50:50.581Z,102842.98
2019-02-22T09:53:19.067Z,102847.30
2019-02-22T09:55:47.485Z,102849.66
2019-02-22T09:58:15.891Z,102851.59
2019-02-22T10:00:44.323Z,102850.12
2019-02-22T10:03:12.738Z,102852.62
2019-02-22T10:05:41.157Z,102849.42
2019-02-22T10:08:09.583Z,102852.05
2019-02-22T10:10:38.017Z,102859.33
2019-02-22T10:13:06.701Z,102858.19
2019-02-22T10:15:35.136Z,102862.90
2019-02-22T10:18:03.572Z,102854.74
2019-02-22T10:20:31.984Z,102857.51
2019-02-22T10:23:00.417Z,102857.88
2019-02-22T10:25:29.001Z,102850.73
2019-02-22T10:27:57.522Z,102856.20
2019-02-22T10:30:25.928Z,102857.00
2019-02-22T10:32:54.382Z,102864.69
2019-02-22T10:35:22.813Z,102860.95
2019-02-22T10:37:51.246Z,102860.27
2019-02-22T10:40:19.651Z,102867.48
2019-02-22T10:42:48.106Z,102867.17
2019-02-22T10:45:16.490Z,102871.81
2019-02-22T10:47:44.911Z,102863.23
2019-02-22T10:50:13.413Z,102862.19
2019-02-22T10:52:41.824Z,102876.00
2019-02-22T10:55:12.313Z,102870.09
2019-02-22T10:57:40.860Z,102880.83
2019-02-22T11:00:12.843Z,102876.64
2019-02-22T11:02:41.257Z,102880.14
2019-02-22T11:05:09.944Z,102878.05
2019-02-22T11:07:38.508Z,102872.80
2019-02-22T11:10:09.779Z,102878.59
2019-02-22T11:12:38.220Z,102868.47
2019-02-22T11:15:09.592Z,102867.37
2019-02-22T11:17:38.032Z,102867.54
2019-02-22T11:20:10.759Z,102869.77
2019-02-22T11:22:39.276Z,102863.70
2019-02-22T11:25:13.717Z,102872.86
2019-02-22T11:27:42.152Z,102877.30
2019-02-22T11:30:15.140Z,102878.06
2019-02-22T11:32:43.653Z,102882.85
2019-02-22T11:35:12.187Z,102875.81
2019-02-22T11:37:40.584Z,102878.10
2019-02-22T11:40:12.136Z,102882.23
2019-02-22T11:42:40.626Z,102884.80
2019-02-22T11:45:10.221Z,102878.38
2019-02-22T11:47:38.698Z,102879.32
2019-02-22T11:50:11.345Z,102880.07
2019-02-22T11:52:39.799Z,102881.70
2019-02-22T11:55:09.133Z,102880.13
2019-02-22T11:57:37.645Z,102873.56
2019-02-22T12:00:15.842Z,102877.23
2019-02-22T12:02:45.410Z,102877.42
2019-02-22T12:05:14.288Z,102887.33
2019-02-22T12:07:42.762Z,102885.23
2019-02-22T12:10:11.331Z,102882.33
2019-02-22T12:12:39.773Z,102884.77
2019-02-22T12:15:13.375Z,102881.73
2019-02-22T12:17:41.814Z,102884.23
2019-02-22T12:20:11.309Z,102892.65
2019-02-22T12:22:39.725Z,102894.16
2019-02-22T12:25:10.708Z,102883.20
2019-02-22T12:27:39.140Z,102882.67
2019-02-22T12:30:15.423Z,102889.55
2019-02-22T12:32:43.925Z,102884.83
2019-02-22T12:35:12.421Z,102881.52
2019-02-22T12:37:40.974Z,102884.02
2019-02-22T12:40:10.918Z,102883.66
2019-02-22T12:42:39.326Z,102891.02
2019-02-22T12:45:10.336Z,102899.12
2019-02-22T12:47:38.819Z,102898.84
2019-02-22T12:50:11.948Z,102897.36
2019-02-22T12:52:40.357Z,102900.28
2019-02-22T12:55:10.122Z,102894.23
2019-02-22T12:57:38.552Z,102899.93
2019-02-22T13:00:10.039Z,102900.80
2019-02-22T13:02:38.444Z,102907.41
2019-02-22T13:05:09.314Z,102899.81
2019-02-22T13:07:37.719Z,102899.64
2019-02-22T13:10:07.384Z,102901.16
2019-02-22T13:12:35.916Z,102898.92
2019-02-22T13:15:13.620Z,102896.80
2019-02-22T13:17:36.612Z,102894.91
2019-02-22T13:20:06.768Z,102902.67
2019-02-22T13:22:35.207Z,102905.23
2019-02-22T13:25:04.469Z,102907.28
2019-02-22T13:27:32.905Z,102907.22
2019-02-22T13:30:01.408Z,102909.02
2019-02-22T13:32:29.922Z,102910.78
2019-02-22T13:34:58.352Z,102907.89
2019-02-22T13:37:26.864Z,102903.16
2019-02-22T13:39:55.359Z,102900.47
2019-02-22T13:42:23.840Z,102907.00
2019-02-22T13:44:52.273Z,102892.66
2019-02-22T13:47:20.841Z,102897.20
2019-02-22T13:49:49.407Z,102901.58
2019-02-22T13:52:17.837Z,102904.03
2019-02-22T13:54:46.359Z,102913.33
2019-02-22T13:57:14.760Z,102914.86
2019-02-22T13:59:43.185Z,102910.50
2019-02-22T14:02:11.627Z,102910.39
2019-02-22T14:04:40.102Z,102909.62
2019-02-22T14:07:08.623Z,102914.03
2019-02-22T14:09:37.060Z,102900.84
2019-02-22T14:12:05.543Z,102903.81
2019-02-22T14:14:34.051Z,102899.09
2019-02-22T14:17:02.482Z,102908.75
2019-02-22T14:19:30.906Z,102903.03
2019-02-22T14:21:59.315Z,102902.56
2019-02-22T14:24:27.758Z,102911.67
2019-02-22T14:26:56.138Z,102907.00
2019-02-22T14:29:24.551Z,102907.93
2019-02-22T14:31:52.987Z,102902.94
2019-02-22T14:34:21.393Z,102902.80
2019-02-22T14:36:49.916Z,102901.63
2019-02-22T14:39:18.301Z,102902.30
2019-02-22T14:41:46.799Z,102902.16
2019-02-22T14:44:15.218Z,102897.11
2019-02-22T14:46:43.652Z,102894.80
2019-02-22T14:49:12.092Z,102896.44
2019-02-22T14:51:40.499Z,102897.82
2019-02-22T14:54:08.948Z,102906.92
2019-02-22T14:56:37.344Z,102906.20
2019-02-22T14:59:05.795Z,102910.81
2019-02-22T15:01:35.701Z,102907.66
2019-02-22T15:04:04.359Z,102909.10
2019-02-22T15:06:32.787Z,102913.55
2019-02-22T15:09:01.212Z,102918.62
2019-02-22T15:11:31.276Z,102909.70
2019-02-22T15:13:59.842Z,102912.70
2019-02-22T15:16:29.891Z,102912.88
2019-02-22T15:18:58.327Z,102915.25
2019-02-22T15:21:26.749Z,102919.77
2019-02-22T15:23:55.259Z,102926.06
2019-02-22T15:26:23.735Z,102926.47
2019-02-22T15:28:52.173Z,102930.27
2019-02-22T15:31:20.584Z,102928.92
2019-02-22T15:33:48.998Z,102928.86
2019-02-22T15:36:17.419Z,102926.77
2019-02-22T15:38:45.859Z,102921.10
2019-02-22T15:41:14.279Z,102925.02
2019-02-22T15:43:42.796Z,102919.88
2019-02-22T15:46:12.454Z,102918.19
2019-02-22T15:48:41.109Z,102919.94
2019-02-22T15:51:09.590Z,102920.69
2019-02-22T15:53:38.085Z,102927.58
2019-02-22T15:56:06.513Z,102930.67
2019-02-22T15:58:34.943Z,102927.00
2019-02-22T16:01:03.360Z,102927.12
2019-02-22T16:03:33.445Z,102924.38
2019-02-22T16:06:01.853Z,102921.81
2019-02-22T16:08:30.287Z,102923.09
2019-02-22T16:10:58.707Z,102926.02
2019-02-22T16:13:27.128Z,102925.05
2019-02-22T16:15:55.532Z,102918.69
2019-02-22T16:18:23.961Z,102909.33
2019-02-22T16:20:52.394Z,102916.21
2019-02-22T16:23:20.796Z,102916.12
2019-02-22T16:25:49.216Z,102927.62
2019-02-22T16:28:17.621Z,102927.47
2019-02-22T16:30:46.167Z,102926.53
2019-02-22T16:33:14.616Z,102932.72
2019-02-22T16:35:43.046Z,102930.69
2019-02-22T16:38:11.474Z,102941.19
2019-02-22T16:40:39.883Z,102944.33
2019-02-22T16:43:08.314Z,102949.19
2019-02-22T16:45:36.725Z,102951.16
2019-02-22T16:48:05.294Z,102945.44
2019-02-22T16:50:33.727Z,102952.66
2019-02-22T16:53:02.153Z,102961.45
2019-02-22T16:55:30.613Z,102953.13
2019-02-22T16:57:59.017Z,102952.13
2019-02-22T17:00:27.506Z,102945.53
2019-02-22T17:02:56.459Z,102954.78
2019-02-22T17:05:25.042Z,102956.25
2019-02-22T17:07:53.464Z,102962.53
2019-02-22T17:10:21.972Z,102975.16
2019-02-22T17:12:50.427Z,102978.88
2019-02-22T17:15:18.861Z,102976.79
2019-02-22T17:17:47.309Z,102973.75
2019-02-22T17:20:16.257Z,102976.25
2019-02-22T17:22:44.765Z,102989.31
2019-02-22T17:25:18.444Z,102989.25
2019-02-22T17:27:46.848Z,102989.52
2019-02-22T17:30:17.037Z,102981.16
2019-02-22T17:32:45.441Z,102984.88
2019-02-22T17:35:13.877Z,102988.42
2019-02-22T17:37:42.369Z,102991.53
2019-02-22T17:40:19.554Z,102996.92
2019-02-22T17:42:47.982Z,102997.16
2019-02-22T17:45:16.410Z,102992.70
2019-02-22T17:47:44.822Z,102993.78
2019-02-22T17:50:13.309Z,102994.86
2019-02-22T17:52:41.758Z,103002.38
2019-02-22T17:55:10.729Z,102992.66
2019-02-22T17:57:39.134Z,102994.67
2019-02-22T18:00:19.809Z,103000.47
2019-02-22T18:02:48.227Z,103004.61
2019-02-22T18:05:16.642Z,103010.77
2019-02-22T18:07:45.104Z,103012.38
2019-02-22T18:10:13.579Z,103013.05
2019-02-22T18:12:42.007Z,103017.95
2019-02-22T18:15:15.185Z,103007.94
2019-02-22T18:17:45.682Z,103019.39
2019-02-22T18:20:14.251Z,103015.00
2019-02-22T18:22:42.746Z,103013.25
2019-02-22T18:25:11.156Z,103010.14
2019-02-22T18:27:39.669Z,103011.91
2019-02-22T18:30:22.588Z,103007.11
2019-02-22T18:32:51.022Z,103005.87
2019-02-22T18:35:19.489Z,103007.62
2019-02-22T18:37:48.160Z,103006.93
2019-02-22T18:40:18.380Z,103008.22
2019-02-22T18:42:46.855Z,103005.98
2019-02-22T18:45:15.366Z,103007.73
2019-02-22T18:47:43.755Z,103008.54
2019-02-22T18:50:12.250Z,103007.77
2019-02-22T18:52:40.684Z,103005.50
2019-02-22T18:55:10.450Z,103006.71
2019-02-22T18:57:39.017Z,102996.66
2019-02-22T19:00:17.743Z,102992.91
2019-02-22T19:02:46.173Z,102990.90
2019-02-22T19:05:14.774Z,102992.73
2019-02-22T19:07:43.270Z,102996.09
2019-02-22T19:10:14.374Z,102998.83
2019-02-22T19:12:42.862Z,102997.64
2019-02-22T19:15:12.952Z,102994.67
2019-02-22T19:17:41.539Z,102991.09
2019-02-22T19:20:20.755Z,102981.49
2019-02-22T19:22:49.254Z,102984.61
2019-02-22T19:25:17.656Z,102979.34
2019-02-22T19:27:46.697Z,102983.09
2019-02-22T19:30:17.949Z,102984.30
2019-02-22T19:32:46.432Z,102987.34
2019-02-22T19:35:14.926Z,102999.25
2019-02-22T19:37:43.429Z,103002.20
2019-02-22T19:40:17.586Z,103008.89
2019-02-22T19:42:46.017Z,103009.06
2019-02-22T19:45:14.496Z,103013.70
2019-02-22T19:47:42.990Z,103015.78
2019-02-22T19:50:13.149Z,103019.94
2019-02-22T19:52:41.699Z,103028.25
2019-02-22T19:55:15.849Z,103032.14
2019-02-22T19:57:44.334Z,103028.16
2019-02-22T20:00:17.520Z,103033.27
2019-02-22T20:02:46.103Z,103033.16
2019-02-22T20:05:15.349Z,103028.84
2019-02-22T20:07:43.959Z,103033.00
2019-02-22T20:10:18.307Z,103041.78
2019-02-22T20:12:45.275Z,103037.47
2019-02-22T20:15:17.928Z,103042.42
2019-02-22T20:17:53.746Z,103047.78
2019-02-22T20:20:17.847Z,103060.12
2019-02-22T20:22:46.275Z,103058.95
2019-02-22T20:25:14.962Z,103057.55
2019-02-22T20:27:43.391Z,103056.87
2019-02-22T20:30:18.878Z,103057.19
2019-02-22T20:32:47.343Z,103050.72
2019-02-22T20:35:24.111Z,103056.63
2019-02-22T20:37:53.413Z,103060.23
2019-02-22T20:40:22.203Z,103060.06
2019-02-22T20:42:50.752Z,103054.47
2019-02-22T20:45:19.262Z,103053.36
2019-02-22T20:47:47.686Z,103050.64
2019-02-22T20:50:16.176Z,103062.77
2019-02-22T20:52:44.658Z,103066.55
2019-02-22T20:55:13.346Z,103062.47
2019-02-22T20:57:41.758Z,103065.22
2019-02-22T21:00:16.848Z,102654.56
2019-02-22T21:02:45.320Z,103071.75
2019-02-22T21:05:13.761Z,103071.95
2019-02-22T21:07:42.159Z,103068.99
2019-02-22T21:10:15.875Z,103062.90
2019-02-22T21:12:44.430Z,103074.56
2019-02-22T21:15:13.796Z,103077.91
2019-02-22T21:17:42.343Z,103069.13
2019-02-22T21:20:13.453Z,103072.88
2019-02-22T21:22:41.958Z,103073.58
2019-02-22T21:25:11.967Z,103079.22
2019-02-22T21:27:40.444Z,103076.12
2019-02-22T21:30:15.035Z,103082.41
2019-02-22T21:32:43.469Z,103081.62
2019-02-22T21:35:12.024Z,103086.02
2019-02-22T21:37:42.097Z,103081.08
2019-02-22T21:40:13.945Z,103073.43
2019-02-22T21:42:42.421Z,103084.34
2019-02-22T21:45:14.885Z,103088.39
2019-02-22T21:47:54.124Z,103095.66
2019-02-22T21:50:14.490Z,103094.11
2019-02-22T21:52:42.978Z,103094.11
2019-02-22T21:55:15.686Z,103092.75
2019-02-22T21:57:44.098Z,103096.01
2019-02-22T22:00:20.789Z,103099.89
2019-02-22T22:02:49.185Z,103103.02
2019-02-22T22:05:17.655Z,103105.08
2019-02-22T22:07:46.147Z,103102.39
2019-02-22T22:10:14.628Z,103095.62
2019-02-22T22:12:43.133Z,103097.12
2019-02-22T22:15:15.352Z,103107.50
2019-02-22T22:17:43.854Z,103098.17
2019-02-22T22:20:12.425Z,103092.19
2019-02-22T22:22:41.042Z,103107.27
2019-02-22T22:25:14.052Z,103110.83
2019-02-22T22:27:42.470Z,103111.23
2019-02-22T22:30:12.441Z,103109.77
2019-02-22T22:32:40.856Z,103107.04
2019-02-22T22:35:11.772Z,103115.30
2019-02-22T22:37:40.196Z,103112.35
2019-02-22T22:40:10.341Z,103115.99
2019-02-22T22:42:38.769Z,103117.45
2019-02-22T22:45:10.362Z,103115.78
2019-02-22T22:47:38.804Z,103116.84
2019-02-22T22:50:09.839Z,103119.70
2019-02-22T22:52:38.268Z,103123.23
2019-02-22T22:55:08.212Z,103121.22
2019-02-22T22:57:36.723Z,103119.34
2019-02-22T23:00:17.206Z,103117.48
2019-02-22T23:02:45.632Z,103118.69
2019-02-22T23:05:14.183Z,103121.61
2019-02-22T23:07:42.628Z,103105.95
2019-02-22T23:10:11.179Z,103106.02
2019-02-22T23:12:39.648Z,103109.93
2019-02-22T23:15:08.077Z,103108.19
2019-02-22T23:17:36.489Z,103109.58
2019-02-22T23:20:07.043Z,103108.80
2019-02-22T23:22:35.594Z,103109.09
2019-02-22T23:25:04.446Z,103107.33
2019-02-22T23:27:32.855Z,103110.26
2019-02-22T23:30:01.264Z,103106.25
2019-02-22T23:32:29.678Z,103107.59
2019-02-22T23:34:58.105Z,103108.22
2019-02-22T23:37:26.532Z,103114.37
2019-02-22T23:39:54.978Z,103115.36
2019-02-22T23:42:23.371Z,103120.15
2019-02-22T23:44:51.766Z,103120.64
2019-02-22T23:47:20.190Z,103124.27
2019-02-22T23:49:48.613Z,103124.68
2019-02-22T23:52:17.016Z,103132.80
2019-02-22T23:54:45.425Z,103128.66
2019-02-22T23:57:13.896Z,103125.14
2019-02-22T23:59:42.294Z,103122.69
